sensor_id;sensor_type;location;lat;lon;timestamp;P1;durP1;ratioP1;P2;durP2;ratioP2
78740;SDS011;68062;48.726;9.370;2023-09-12T00:00:06;15.03;;;10.97;;
78740;SDS011;68062;48.726;9.370;2023-09-12T00:02:38;16.20;;;11.23;;
78740;SDS011;68062;48.726;9.370;2023-09-12T00:05:06;13.27;;;11.23;;
78740;SDS011;68062;48.726;9.370;2023-09-12T00:07:33;13.90;;;10.67;;
78740;SDS011;68062;48.726;9.370;2023-09-12T00:09:59;13.77;;;11.40;;
78740;SDS011;68062;48.726;9.370;2023-09-12T00:12:27;18.90;;;11.67;;
78740;SDS011;68062;48.726;9.370;2023-09-12T00:14:53;12.53;;;10.63;;
78740;SDS011;68062;48.726;9.370;2023-09-12T00:17:22;15.57;;;11.03;;
78740;SDS011;68062;48.726;9.370;2023-09-12T00:19:48;14.83;;;11.07;;
78740;SDS011;68062;48.726;9.370;2023-09-12T00:22:15;15.47;;;11.67;;
78740;SDS011;68062;48.726;9.370;2023-09-12T00:24:42;11.10;;;10.53;;
78740;SDS011;68062;48.726;9.370;2023-09-12T00:27:09;13.47;;;10.50;;
78740;SDS011;68062;48.726;9.370;2023-09-12T00:29:36;13.03;;;10.63;;
78740;SDS011;68062;48.726;9.370;2023-09-12T00:32:02;13.73;;;10.10;;
78740;SDS011;68062;48.726;9.370;2023-09-12T00:34:31;15.57;;;11.13;;
78740;SDS011;68062;48.726;9.370;2023-09-12T00:36:58;13.63;;;10.90;;
78740;SDS011;68062;48.726;9.370;2023-09-12T00:39:25;14.43;;;11.23;;
78740;SDS011;68062;48.726;9.370;2023-09-12T00:41:51;13.90;;;10.10;;
78740;SDS011;68062;48.726;9.370;2023-09-12T00:44:18;15.03;;;11.23;;
78740;SDS011;68062;48.726;9.370;2023-09-12T00:46:45;13.83;;;10.43;;
78740;SDS011;68062;48.726;9.370;2023-09-12T00:49:14;16.07;;;11.73;;
78740;SDS011;68062;48.726;9.370;2023-09-12T00:51:44;15.27;;;11.70;;
78740;SDS011;68062;48.726;9.370;2023-09-12T00:54:11;11.20;;;9.83;;
78740;SDS011;68062;48.726;9.370;2023-09-12T00:56:39;22.47;;;12.20;;
78740;SDS011;68062;48.726;9.370;2023-09-12T00:59:06;14.67;;;11.53;;
78740;SDS011;68062;48.726;9.370;2023-09-12T01:01:33;16.00;;;11.63;;
78740;SDS011;68062;48.726;9.370;2023-09-12T01:04:00;13.70;;;11.10;;
78740;SDS011;68062;48.726;9.370;2023-09-12T01:06:28;16.80;;;11.60;;
78740;SDS011;68062;48.726;9.370;2023-09-12T01:08:59;17.13;;;11.27;;
78740;SDS011;68062;48.726;9.370;2023-09-12T01:11:26;17.00;;;10.83;;
78740;SDS011;68062;48.726;9.370;2023-09-12T01:13:53;17.60;;;11.50;;
78740;SDS011;68062;48.726;9.370;2023-09-12T01:16:20;16.20;;;11.27;;
78740;SDS011;68062;48.726;9.370;2023-09-12T01:18:47;17.47;;;11.17;;
78740;SDS011;68062;48.726;9.370;2023-09-12T01:21:21;13.27;;;11.87;;
78740;SDS011;68062;48.726;9.370;2023-09-12T01:24:10;18.67;;;12.10;;
78740;SDS011;68062;48.726;9.370;2023-09-12T01:26:54;13.40;;;11.27;;
78740;SDS011;68062;48.726;9.370;2023-09-12T01:29:31;13.90;;;10.83;;
78740;SDS011;68062;48.726;9.370;2023-09-12T01:31:58;13.80;;;10.60;;
78740;SDS011;68062;48.726;9.370;2023-09-12T01:34:27;16.90;;;11.63;;
78740;SDS011;68062;48.726;9.370;2023-09-12T01:36:53;14.30;;;10.97;;
78740;SDS011;68062;48.726;9.370;2023-09-12T01:39:20;13.67;;;10.90;;
78740;SDS011;68062;48.726;9.370;2023-09-12T01:41:47;20.33;;;12.83;;
78740;SDS011;68062;48.726;9.370;2023-09-12T01:44:16;16.30;;;11.80;;
78740;SDS011;68062;48.726;9.370;2023-09-12T01:46:45;12.27;;;11.73;;
78740;SDS011;68062;48.726;9.370;2023-09-12T01:49:15;13.87;;;10.40;;
78740;SDS011;68062;48.726;9.370;2023-09-12T01:51:45;14.87;;;12.03;;
78740;SDS011;68062;48.726;9.370;2023-09-12T01:54:13;12.87;;;11.97;;
78740;SDS011;68062;48.726;9.370;2023-09-12T01:56:41;15.10;;;12.63;;
78740;SDS011;68062;48.726;9.370;2023-09-12T01:59:08;13.10;;;11.17;;
78740;SDS011;68062;48.726;9.370;2023-09-12T02:01:35;15.00;;;11.53;;
78740;SDS011;68062;48.726;9.370;2023-09-12T02:04:03;16.43;;;11.77;;
78740;SDS011;68062;48.726;9.370;2023-09-12T02:06:34;14.37;;;11.80;;
78740;SDS011;68062;48.726;9.370;2023-09-12T02:09:00;14.07;;;11.80;;
78740;SDS011;68062;48.726;9.370;2023-09-12T02:11:27;15.63;;;12.27;;
78740;SDS011;68062;48.726;9.370;2023-09-12T02:13:54;15.07;;;12.27;;
78740;SDS011;68062;48.726;9.370;2023-09-12T02:16:20;17.00;;;11.40;;
78740;SDS011;68062;48.726;9.370;2023-09-12T02:18:47;16.47;;;13.27;;
78740;SDS011;68062;48.726;9.370;2023-09-12T02:21:15;17.00;;;12.47;;
78740;SDS011;68062;48.726;9.370;2023-09-12T02:23:42;13.60;;;12.10;;
78740;SDS011;68062;48.726;9.370;2023-09-12T02:26:09;14.50;;;11.20;;
78740;SDS011;68062;48.726;9.370;2023-09-12T02:28:35;16.67;;;12.67;;
78740;SDS011;68062;48.726;9.370;2023-09-12T02:31:02;13.07;;;12.00;;
78740;SDS011;68062;48.726;9.370;2023-09-12T02:33:29;15.07;;;12.33;;
78740;SDS011;68062;48.726;9.370;2023-09-12T02:35:56;21.93;;;13.60;;
78740;SDS011;68062;48.726;9.370;2023-09-12T02:38:24;17.83;;;13.40;;
78740;SDS011;68062;48.726;9.370;2023-09-12T02:40:50;17.97;;;12.77;;
78740;SDS011;68062;48.726;9.370;2023-09-12T02:43:17;19.57;;;14.40;;
78740;SDS011;68062;48.726;9.370;2023-09-12T02:45:44;16.47;;;12.67;;
78740;SDS011;68062;48.726;9.370;2023-09-12T02:48:11;16.03;;;12.97;;
78740;SDS011;68062;48.726;9.370;2023-09-12T02:50:38;14.40;;;13.50;;
78740;SDS011;68062;48.726;9.370;2023-09-12T02:53:05;17.30;;;14.47;;
78740;SDS011;68062;48.726;9.370;2023-09-12T02:55:33;17.07;;;13.10;;
78740;SDS011;68062;48.726;9.370;2023-09-12T02:58:05;16.63;;;13.30;;
78740;SDS011;68062;48.726;9.370;2023-09-12T03:00:32;19.80;;;14.13;;
78740;SDS011;68062;48.726;9.370;2023-09-12T03:02:58;18.30;;;12.50;;
78740;SDS011;68062;48.726;9.370;2023-09-12T03:05:26;16.90;;;12.90;;
78740;SDS011;68062;48.726;9.370;2023-09-12T03:07:52;16.37;;;12.63;;
78740;SDS011;68062;48.726;9.370;2023-09-12T03:10:19;19.23;;;12.80;;
78740;SDS011;68062;48.726;9.370;2023-09-12T03:12:47;15.60;;;13.80;;
78740;SDS011;68062;48.726;9.370;2023-09-12T03:15:14;16.57;;;13.00;;
78740;SDS011;68062;48.726;9.370;2023-09-12T03:17:41;15.80;;;12.60;;
78740;SDS011;68062;48.726;9.370;2023-09-12T03:20:08;20.43;;;13.63;;
78740;SDS011;68062;48.726;9.370;2023-09-12T03:22:36;14.00;;;12.60;;
78740;SDS011;68062;48.726;9.370;2023-09-12T03:25:04;16.77;;;14.27;;
78740;SDS011;68062;48.726;9.370;2023-09-12T03:27:32;19.50;;;13.77;;
78740;SDS011;68062;48.726;9.370;2023-09-12T03:30:00;21.70;;;13.63;;
78740;SDS011;68062;48.726;9.370;2023-09-12T03:32:27;22.73;;;14.10;;
78740;SDS011;68062;48.726;9.370;2023-09-12T03:34:54;16.83;;;12.53;;
78740;SDS011;68062;48.726;9.370;2023-09-12T03:37:20;16.50;;;13.03;;
78740;SDS011;68062;48.726;9.370;2023-09-12T03:39:48;20.20;;;13.57;;
78740;SDS011;68062;48.726;9.370;2023-09-12T03:42:14;16.27;;;13.53;;
78740;SDS011;68062;48.726;9.370;2023-09-12T03:44:41;15.30;;;12.63;;
78740;SDS011;68062;48.726;9.370;2023-09-12T03:47:09;15.43;;;12.17;;
78740;SDS011;68062;48.726;9.370;2023-09-12T03:49:36;15.23;;;13.47;;
78740;SDS011;68062;48.726;9.370;2023-09-12T03:52:03;17.03;;;12.60;;
78740;SDS011;68062;48.726;9.370;2023-09-12T03:54:30;15.33;;;11.43;;
78740;SDS011;68062;48.726;9.370;2023-09-12T03:56:58;16.47;;;14.00;;
78740;SDS011;68062;48.726;9.370;2023-09-12T03:59:24;18.83;;;14.80;;
78740;SDS011;68062;48.726;9.370;2023-09-12T04:01:51;17.17;;;13.80;;
78740;SDS011;68062;48.726;9.370;2023-09-12T04:04:19;17.83;;;14.20;;
78740;SDS011;68062;48.726;9.370;2023-09-12T04:06:46;17.00;;;12.67;;
78740;SDS011;68062;48.726;9.370;2023-09-12T04:09:13;20.10;;;13.83;;
78740;SDS011;68062;48.726;9.370;2023-09-12T04:11:40;16.33;;;12.27;;
78740;SDS011;68062;48.726;9.370;2023-09-12T04:14:07;18.33;;;13.37;;
78740;SDS011;68062;48.726;9.370;2023-09-12T04:16:33;17.33;;;12.90;;
78740;SDS011;68062;48.726;9.370;2023-09-12T04:19:00;14.47;;;13.17;;
78740;SDS011;68062;48.726;9.370;2023-09-12T04:21:28;16.53;;;12.77;;
78740;SDS011;68062;48.726;9.370;2023-09-12T04:23:55;18.57;;;13.53;;
78740;SDS011;68062;48.726;9.370;2023-09-12T04:26:22;16.73;;;12.00;;
78740;SDS011;68062;48.726;9.370;2023-09-12T04:28:48;13.33;;;12.30;;
78740;SDS011;68062;48.726;9.370;2023-09-12T04:31:16;17.87;;;12.80;;
78740;SDS011;68062;48.726;9.370;2023-09-12T04:33:43;16.77;;;13.33;;
78740;SDS011;68062;48.726;9.370;2023-09-12T04:36:10;16.60;;;12.10;;
78740;SDS011;68062;48.726;9.370;2023-09-12T04:38:38;18.80;;;12.80;;
78740;SDS011;68062;48.726;9.370;2023-09-12T04:41:05;19.73;;;13.23;;
78740;SDS011;68062;48.726;9.370;2023-09-12T04:43:32;16.70;;;12.20;;
78740;SDS011;68062;48.726;9.370;2023-09-12T04:45:58;15.60;;;12.20;;
78740;SDS011;68062;48.726;9.370;2023-09-12T04:48:26;12.97;;;11.40;;
78740;SDS011;68062;48.726;9.370;2023-09-12T04:50:55;16.40;;;12.10;;
78740;SDS011;68062;48.726;9.370;2023-09-12T04:53:22;15.20;;;11.83;;
78740;SDS011;68062;48.726;9.370;2023-09-12T04:55:50;19.50;;;12.70;;
78740;SDS011;68062;48.726;9.370;2023-09-12T04:58:18;12.70;;;11.53;;
78740;SDS011;68062;48.726;9.370;2023-09-12T05:00:45;14.63;;;12.07;;
78740;SDS011;68062;48.726;9.370;2023-09-12T05:03:12;16.67;;;13.33;;
78740;SDS011;68062;48.726;9.370;2023-09-12T05:05:39;17.63;;;13.23;;
78740;SDS011;68062;48.726;9.370;2023-09-12T05:08:05;17.47;;;13.00;;
78740;SDS011;68062;48.726;9.370;2023-09-12T05:10:32;16.93;;;13.40;;
78740;SDS011;68062;48.726;9.370;2023-09-12T05:13:00;17.00;;;12.90;;
78740;SDS011;68062;48.726;9.370;2023-09-12T05:15:27;14.50;;;12.23;;
78740;SDS011;68062;48.726;9.370;2023-09-12T05:17:54;20.17;;;12.10;;
78740;SDS011;68062;48.726;9.370;2023-09-12T05:20:21;16.53;;;12.17;;
78740;SDS011;68062;48.726;9.370;2023-09-12T05:22:47;17.00;;;12.30;;
78740;SDS011;68062;48.726;9.370;2023-09-12T05:25:14;13.93;;;12.50;;
78740;SDS011;68062;48.726;9.370;2023-09-12T05:27:41;18.80;;;12.43;;
78740;SDS011;68062;48.726;9.370;2023-09-12T05:30:10;13.33;;;11.60;;
78740;SDS011;68062;48.726;9.370;2023-09-12T05:32:37;15.53;;;12.67;;
78740;SDS011;68062;48.726;9.370;2023-09-12T05:35:04;16.93;;;13.60;;
78740;SDS011;68062;48.726;9.370;2023-09-12T05:37:31;18.93;;;12.33;;
78740;SDS011;68062;48.726;9.370;2023-09-12T05:39:58;17.20;;;13.27;;
78740;SDS011;68062;48.726;9.370;2023-09-12T05:42:25;14.57;;;12.50;;
78740;SDS011;68062;48.726;9.370;2023-09-12T05:44:52;16.53;;;12.10;;
78740;SDS011;68062;48.726;9.370;2023-09-12T05:47:21;22.57;;;13.60;;
78740;SDS011;68062;48.726;9.370;2023-09-12T05:49:48;16.13;;;12.70;;
78740;SDS011;68062;48.726;9.370;2023-09-12T05:52:15;15.53;;;12.00;;
78740;SDS011;68062;48.726;9.370;2023-09-12T05:54:42;18.63;;;12.40;;
78740;SDS011;68062;48.726;9.370;2023-09-12T05:57:08;16.30;;;13.80;;
78740;SDS011;68062;48.726;9.370;2023-09-12T05:59:37;19.90;;;13.20;;
78740;SDS011;68062;48.726;9.370;2023-09-12T06:02:05;19.03;;;13.00;;
78740;SDS011;68062;48.726;9.370;2023-09-12T06:04:35;17.03;;;12.50;;
78740;SDS011;68062;48.726;9.370;2023-09-12T06:07:02;14.50;;;11.47;;
78740;SDS011;68062;48.726;9.370;2023-09-12T06:09:29;13.80;;;11.47;;
78740;SDS011;68062;48.726;9.370;2023-09-12T06:11:55;17.90;;;12.70;;
78740;SDS011;68062;48.726;9.370;2023-09-12T06:14:22;16.10;;;12.00;;
78740;SDS011;68062;48.726;9.370;2023-09-12T06:16:49;15.53;;;12.37;;
78740;SDS011;68062;48.726;9.370;2023-09-12T06:19:15;18.63;;;11.50;;
78740;SDS011;68062;48.726;9.370;2023-09-12T06:21:46;22.40;;;13.47;;
78740;SDS011;68062;48.726;9.370;2023-09-12T06:24:13;22.73;;;14.10;;
78740;SDS011;68062;48.726;9.370;2023-09-12T06:26:42;15.63;;;12.27;;
78740;SDS011;68062;48.726;9.370;2023-09-12T06:29:09;15.47;;;13.23;;
78740;SDS011;68062;48.726;9.370;2023-09-12T06:31:35;14.07;;;12.30;;
78740;SDS011;68062;48.726;9.370;2023-09-12T06:34:03;20.60;;;12.53;;
78740;SDS011;68062;48.726;9.370;2023-09-12T06:36:30;12.67;;;11.13;;
78740;SDS011;68062;48.726;9.370;2023-09-12T06:38:58;19.80;;;12.10;;
78740;SDS011;68062;48.726;9.370;2023-09-12T06:41:26;16.43;;;10.90;;
78740;SDS011;68062;48.726;9.370;2023-09-12T06:43:53;17.37;;;11.40;;
78740;SDS011;68062;48.726;9.370;2023-09-12T06:46:22;15.10;;;12.30;;
78740;SDS011;68062;48.726;9.370;2023-09-12T06:48:49;12.93;;;10.87;;
78740;SDS011;68062;48.726;9.370;2023-09-12T06:51:16;13.33;;;11.40;;
78740;SDS011;68062;48.726;9.370;2023-09-12T06:53:43;14.13;;;10.97;;
78740;SDS011;68062;48.726;9.370;2023-09-12T06:56:10;16.70;;;12.90;;
78740;SDS011;68062;48.726;9.370;2023-09-12T06:58:37;13.47;;;11.23;;
78740;SDS011;68062;48.726;9.370;2023-09-12T07:01:04;12.47;;;11.40;;
78740;SDS011;68062;48.726;9.370;2023-09-12T07:03:32;18.03;;;11.90;;
78740;SDS011;68062;48.726;9.370;2023-09-12T07:05:59;11.90;;;10.50;;
78740;SDS011;68062;48.726;9.370;2023-09-12T07:08:26;18.27;;;11.60;;
78740;SDS011;68062;48.726;9.370;2023-09-12T07:10:53;18.27;;;11.40;;
78740;SDS011;68062;48.726;9.370;2023-09-12T07:13:23;15.47;;;12.17;;
78740;SDS011;68062;48.726;9.370;2023-09-12T07:15:50;17.00;;;11.07;;
78740;SDS011;68062;48.726;9.370;2023-09-12T07:18:17;14.43;;;10.60;;
78740;SDS011;68062;48.726;9.370;2023-09-12T07:20:45;14.00;;;11.33;;
78740;SDS011;68062;48.726;9.370;2023-09-12T07:23:11;15.20;;;11.47;;
78740;SDS011;68062;48.726;9.370;2023-09-12T07:25:38;14.63;;;11.40;;
78740;SDS011;68062;48.726;9.370;2023-09-12T07:28:06;14.77;;;11.57;;
78740;SDS011;68062;48.726;9.370;2023-09-12T07:30:34;17.50;;;12.07;;
78740;SDS011;68062;48.726;9.370;2023-09-12T07:33:02;17.23;;;11.50;;
78740;SDS011;68062;48.726;9.370;2023-09-12T07:35:29;11.60;;;11.00;;
78740;SDS011;68062;48.726;9.370;2023-09-12T07:37:56;14.00;;;11.60;;
78740;SDS011;68062;48.726;9.370;2023-09-12T07:40:23;20.87;;;12.83;;
78740;SDS011;68062;48.726;9.370;2023-09-12T07:42:50;15.83;;;11.60;;
78740;SDS011;68062;48.726;9.370;2023-09-12T07:45:17;19.67;;;11.67;;
78740;SDS011;68062;48.726;9.370;2023-09-12T07:47:46;15.50;;;11.87;;
78740;SDS011;68062;48.726;9.370;2023-09-12T07:50:13;13.67;;;11.27;;
78740;SDS011;68062;48.726;9.370;2023-09-12T07:52:40;14.50;;;12.33;;
78740;SDS011;68062;48.726;9.370;2023-09-12T07:55:07;19.27;;;11.30;;
78740;SDS011;68062;48.726;9.370;2023-09-12T07:57:35;18.03;;;11.20;;
78740;SDS011;68062;48.726;9.370;2023-09-12T08:00:01;19.60;;;11.13;;
78740;SDS011;68062;48.726;9.370;2023-09-12T08:02:36;18.03;;;10.70;;
78740;SDS011;68062;48.726;9.370;2023-09-12T08:05:05;14.00;;;10.20;;
78740;SDS011;68062;48.726;9.370;2023-09-12T08:07:33;15.27;;;11.10;;
78740;SDS011;68062;48.726;9.370;2023-09-12T08:10:00;12.73;;;9.70;;
78740;SDS011;68062;48.726;9.370;2023-09-12T08:12:27;13.30;;;10.50;;
78740;SDS011;68062;48.726;9.370;2023-09-12T08:14:54;10.53;;;10.00;;
78740;SDS011;68062;48.726;9.370;2023-09-12T08:17:21;15.03;;;11.30;;
78740;SDS011;68062;48.726;9.370;2023-09-12T08:19:49;13.93;;;10.90;;
78740;SDS011;68062;48.726;9.370;2023-09-12T08:22:17;14.27;;;11.20;;
78740;SDS011;68062;48.726;9.370;2023-09-12T08:24:44;18.00;;;12.30;;
78740;SDS011;68062;48.726;9.370;2023-09-12T08:27:11;14.43;;;10.80;;
78740;SDS011;68062;48.726;9.370;2023-09-12T08:29:39;13.50;;;11.53;;
78740;SDS011;68062;48.726;9.370;2023-09-12T08:32:06;14.60;;;11.30;;
78740;SDS011;68062;48.726;9.370;2023-09-12T08:34:33;14.67;;;11.40;;
78740;SDS011;68062;48.726;9.370;2023-09-12T08:37:00;13.30;;;11.10;;
78740;SDS011;68062;48.726;9.370;2023-09-12T08:39:36;13.10;;;11.63;;
78740;SDS011;68062;48.726;9.370;2023-09-12T08:42:06;17.23;;;11.23;;
78740;SDS011;68062;48.726;9.370;2023-09-12T08:44:37;20.20;;;11.60;;
78740;SDS011;68062;48.726;9.370;2023-09-12T08:47:04;16.77;;;10.90;;
78740;SDS011;68062;48.726;9.370;2023-09-12T08:49:32;12.83;;;10.77;;
78740;SDS011;68062;48.726;9.370;2023-09-12T08:52:01;12.13;;;10.77;;
78740;SDS011;68062;48.726;9.370;2023-09-12T08:54:29;12.40;;;11.67;;
78740;SDS011;68062;48.726;9.370;2023-09-12T08:56:56;11.07;;;10.40;;
78740;SDS011;68062;48.726;9.370;2023-09-12T08:59:24;12.07;;;10.43;;
78740;SDS011;68062;48.726;9.370;2023-09-12T09:01:52;14.33;;;11.33;;
78740;SDS011;68062;48.726;9.370;2023-09-12T09:04:21;15.30;;;11.67;;
78740;SDS011;68062;48.726;9.370;2023-09-12T09:06:51;16.60;;;11.00;;
78740;SDS011;68062;48.726;9.370;2023-09-12T09:09:20;12.10;;;10.60;;
78740;SDS011;68062;48.726;9.370;2023-09-12T09:11:50;12.10;;;9.93;;
78740;SDS011;68062;48.726;9.370;2023-09-12T09:14:17;10.13;;;9.63;;
78740;SDS011;68062;48.726;9.370;2023-09-12T09:16:44;10.30;;;9.80;;
78740;SDS011;68062;48.726;9.370;2023-09-12T09:19:10;13.30;;;10.70;;
78740;SDS011;68062;48.726;9.370;2023-09-12T09:21:38;11.40;;;10.47;;
78740;SDS011;68062;48.726;9.370;2023-09-12T09:24:06;13.07;;;9.37;;
78740;SDS011;68062;48.726;9.370;2023-09-12T09:26:44;16.77;;;10.07;;
78740;SDS011;68062;48.726;9.370;2023-09-12T09:29:14;12.20;;;10.20;;
78740;SDS011;68062;48.726;9.370;2023-09-12T09:31:43;11.17;;;10.40;;
78740;SDS011;68062;48.726;9.370;2023-09-12T09:34:11;10.00;;;9.50;;
78740;SDS011;68062;48.726;9.370;2023-09-12T09:36:42;9.10;;;8.60;;
78740;SDS011;68062;48.726;9.370;2023-09-12T09:39:09;10.97;;;8.53;;
78740;SDS011;68062;48.726;9.370;2023-09-12T09:41:37;11.33;;;10.03;;
78740;SDS011;68062;48.726;9.370;2023-09-12T09:44:06;13.73;;;9.57;;
78740;SDS011;68062;48.726;9.370;2023-09-12T09:46:36;12.40;;;10.23;;
78740;SDS011;68062;48.726;9.370;2023-09-12T09:49:03;10.00;;;9.47;;
78740;SDS011;68062;48.726;9.370;2023-09-12T09:51:31;9.73;;;9.10;;
78740;SDS011;68062;48.726;9.370;2023-09-12T09:53:58;12.87;;;10.57;;
78740;SDS011;68062;48.726;9.370;2023-09-12T09:56:26;10.93;;;10.37;;
78740;SDS011;68062;48.726;9.370;2023-09-12T09:58:52;10.93;;;10.07;;
78740;SDS011;68062;48.726;9.370;2023-09-12T10:01:21;13.07;;;9.13;;
78740;SDS011;68062;48.726;9.370;2023-09-12T10:03:51;9.40;;;8.90;;
78740;SDS011;68062;48.726;9.370;2023-09-12T10:06:19;11.23;;;9.43;;
78740;SDS011;68062;48.726;9.370;2023-09-12T10:08:47;9.00;;;8.50;;
78740;SDS011;68062;48.726;9.370;2023-09-12T10:11:17;10.80;;;10.17;;
78740;SDS011;68062;48.726;9.370;2023-09-12T10:13:49;11.10;;;10.13;;
78740;SDS011;68062;48.726;9.370;2023-09-12T10:16:18;11.17;;;10.57;;
78740;SDS011;68062;48.726;9.370;2023-09-12T10:18:49;11.40;;;9.60;;
78740;SDS011;68062;48.726;9.370;2023-09-12T10:21:27;10.40;;;9.90;;
78740;SDS011;68062;48.726;9.370;2023-09-12T10:23:56;10.30;;;9.80;;
78740;SDS011;68062;48.726;9.370;2023-09-12T10:26:25;10.53;;;9.97;;
78740;SDS011;68062;48.726;9.370;2023-09-12T10:28:51;11.43;;;9.93;;
78740;SDS011;68062;48.726;9.370;2023-09-12T10:31:18;11.00;;;9.90;;
78740;SDS011;68062;48.726;9.370;2023-09-12T10:33:45;10.97;;;10.37;;
78740;SDS011;68062;48.726;9.370;2023-09-12T10:36:16;12.20;;;9.73;;
78740;SDS011;68062;48.726;9.370;2023-09-12T10:38:45;10.73;;;10.17;;
78740;SDS011;68062;48.726;9.370;2023-09-12T10:41:14;13.00;;;10.60;;
78740;SDS011;68062;48.726;9.370;2023-09-12T10:43:42;10.93;;;9.80;;
78740;SDS011;68062;48.726;9.370;2023-09-12T10:46:15;12.50;;;9.73;;
78740;SDS011;68062;48.726;9.370;2023-09-12T10:48:42;11.50;;;9.00;;
78740;SDS011;68062;48.726;9.370;2023-09-12T10:51:10;11.07;;;9.80;;
78740;SDS011;68062;48.726;9.370;2023-09-12T10:53:45;9.80;;;9.30;;
78740;SDS011;68062;48.726;9.370;2023-09-12T10:56:15;10.70;;;10.10;;
78740;SDS011;68062;48.726;9.370;2023-09-12T11:01:37;11.50;;;9.60;;
78740;SDS011;68062;48.726;9.370;2023-09-12T11:10:19;10.07;;;9.60;;
78740;SDS011;68062;48.726;9.370;2023-09-12T11:12:48;11.20;;;10.60;;
78740;SDS011;68062;48.726;9.370;2023-09-12T11:15:16;9.70;;;9.20;;
78740;SDS011;68062;48.726;9.370;2023-09-12T11:17:44;9.63;;;9.13;;
78740;SDS011;68062;48.726;9.370;2023-09-12T11:20:12;11.23;;;8.80;;
78740;SDS011;68062;48.726;9.370;2023-09-12T11:22:41;10.10;;;9.60;;
78740;SDS011;68062;48.726;9.370;2023-09-12T11:25:17;9.97;;;9.27;;
78740;SDS011;68062;48.726;9.370;2023-09-12T11:30:36;8.80;;;8.30;;
78740;SDS011;68062;48.726;9.370;2023-09-12T11:33:03;11.37;;;8.97;;
78740;SDS011;68062;48.726;9.370;2023-09-12T11:35:35;9.60;;;8.23;;
78740;SDS011;68062;48.726;9.370;2023-09-12T11:38:04;10.23;;;8.50;;
78740;SDS011;68062;48.726;9.370;2023-09-12T11:40:43;8.77;;;8.27;;
78740;SDS011;68062;48.726;9.370;2023-09-12T11:43:19;8.53;;;8.03;;
78740;SDS011;68062;48.726;9.370;2023-09-12T11:45:46;8.47;;;7.73;;
78740;SDS011;68062;48.726;9.370;2023-09-12T11:48:13;7.77;;;7.37;;
78740;SDS011;68062;48.726;9.370;2023-09-12T11:50:40;10.77;;;7.20;;
78740;SDS011;68062;48.726;9.370;2023-09-12T11:53:08;10.10;;;7.53;;
78740;SDS011;68062;48.726;9.370;2023-09-12T11:55:37;8.70;;;6.67;;
78740;SDS011;68062;48.726;9.370;2023-09-12T11:58:11;8.37;;;7.50;;
78740;SDS011;68062;48.726;9.370;2023-09-12T12:00:42;7.67;;;6.57;;
78740;SDS011;68062;48.726;9.370;2023-09-12T12:03:11;7.87;;;6.53;;
78740;SDS011;68062;48.726;9.370;2023-09-12T12:05:38;7.80;;;7.40;;
78740;SDS011;68062;48.726;9.370;2023-09-12T12:08:06;7.83;;;7.43;;
78740;SDS011;68062;48.726;9.370;2023-09-12T12:10:34;7.10;;;6.73;;
78740;SDS011;68062;48.726;9.370;2023-09-12T12:13:01;8.83;;;7.40;;
78740;SDS011;68062;48.726;9.370;2023-09-12T12:15:30;7.73;;;7.10;;
78740;SDS011;68062;48.726;9.370;2023-09-12T12:17:57;5.83;;;5.30;;
78740;SDS011;68062;48.726;9.370;2023-09-12T12:20:24;11.00;;;7.03;;
78740;SDS011;68062;48.726;9.370;2023-09-12T12:22:53;6.60;;;6.20;;
78740;SDS011;68062;48.726;9.370;2023-09-12T12:25:19;10.63;;;7.07;;
78740;SDS011;68062;48.726;9.370;2023-09-12T12:27:47;9.10;;;6.60;;
78740;SDS011;68062;48.726;9.370;2023-09-12T12:30:14;6.73;;;5.93;;
78740;SDS011;68062;48.726;9.370;2023-09-12T12:32:42;8.43;;;6.60;;
78740;SDS011;68062;48.726;9.370;2023-09-12T12:35:16;10.00;;;7.70;;
78740;SDS011;68062;48.726;9.370;2023-09-12T12:37:43;7.00;;;6.17;;
78740;SDS011;68062;48.726;9.370;2023-09-12T12:40:11;6.50;;;5.97;;
78740;SDS011;68062;48.726;9.370;2023-09-12T12:42:39;6.80;;;6.20;;
78740;SDS011;68062;48.726;9.370;2023-09-12T12:45:10;7.43;;;7.03;;
78740;SDS011;68062;48.726;9.370;2023-09-12T12:47:37;6.80;;;6.40;;
78740;SDS011;68062;48.726;9.370;2023-09-12T12:50:08;9.50;;;7.17;;
78740;SDS011;68062;48.726;9.370;2023-09-12T12:52:37;7.97;;;7.57;;
78740;SDS011;68062;48.726;9.370;2023-09-12T12:55:04;6.83;;;6.30;;
78740;SDS011;68062;48.726;9.370;2023-09-12T12:57:31;6.70;;;6.30;;
78740;SDS011;68062;48.726;9.370;2023-09-12T12:59:58;7.07;;;6.70;;
78740;SDS011;68062;48.726;9.370;2023-09-12T13:02:25;6.90;;;6.50;;
78740;SDS011;68062;48.726;9.370;2023-09-12T13:04:51;6.70;;;6.30;;
78740;SDS011;68062;48.726;9.370;2023-09-12T13:07:19;6.97;;;6.57;;
78740;SDS011;68062;48.726;9.370;2023-09-12T13:09:46;7.00;;;6.60;;
78740;SDS011;68062;48.726;9.370;2023-09-12T13:12:13;6.57;;;5.93;;
78740;SDS011;68062;48.726;9.370;2023-09-12T13:14:41;8.17;;;6.67;;
78740;SDS011;68062;48.726;9.370;2023-09-12T13:17:07;8.53;;;5.97;;
78740;SDS011;68062;48.726;9.370;2023-09-12T13:19:34;6.50;;;6.10;;
78740;SDS011;68062;48.726;9.370;2023-09-12T13:22:01;8.07;;;7.67;;
78740;SDS011;68062;48.726;9.370;2023-09-12T13:24:29;7.30;;;6.90;;
78740;SDS011;68062;48.726;9.370;2023-09-12T13:26:55;7.23;;;6.80;;
78740;SDS011;68062;48.726;9.370;2023-09-12T13:29:22;7.50;;;6.87;;
78740;SDS011;68062;48.726;9.370;2023-09-12T13:31:48;7.30;;;6.90;;
78740;SDS011;68062;48.726;9.370;2023-09-12T13:34:15;7.10;;;6.70;;
78740;SDS011;68062;48.726;9.370;2023-09-12T13:36:43;6.77;;;6.37;;
78740;SDS011;68062;48.726;9.370;2023-09-12T13:39:09;7.60;;;6.83;;
78740;SDS011;68062;48.726;9.370;2023-09-12T13:41:39;7.10;;;6.70;;
78740;SDS011;68062;48.726;9.370;2023-09-12T13:44:06;7.17;;;6.77;;
78740;SDS011;68062;48.726;9.370;2023-09-12T13:46:33;7.77;;;7.40;;
78740;SDS011;68062;48.726;9.370;2023-09-12T13:48:59;8.17;;;6.40;;
78740;SDS011;68062;48.726;9.370;2023-09-12T13:51:30;10.63;;;7.20;;
78740;SDS011;68062;48.726;9.370;2023-09-12T13:53:57;7.50;;;7.10;;
78740;SDS011;68062;48.726;9.370;2023-09-12T13:56:24;8.63;;;7.30;;
78740;SDS011;68062;48.726;9.370;2023-09-12T13:58:52;8.27;;;7.87;;
78740;SDS011;68062;48.726;9.370;2023-09-12T14:01:18;6.97;;;6.57;;
78740;SDS011;68062;48.726;9.370;2023-09-12T14:03:45;7.77;;;7.37;;
78740;SDS011;68062;48.726;9.370;2023-09-12T14:06:12;6.77;;;6.37;;
78740;SDS011;68062;48.726;9.370;2023-09-12T14:08:39;7.70;;;7.30;;
78740;SDS011;68062;48.726;9.370;2023-09-12T14:11:05;7.50;;;7.07;;
78740;SDS011;68062;48.726;9.370;2023-09-12T14:13:32;6.80;;;6.40;;
78740;SDS011;68062;48.726;9.370;2023-09-12T14:16:00;9.10;;;7.83;;
78740;SDS011;68062;48.726;9.370;2023-09-12T14:18:27;8.60;;;7.60;;
78740;SDS011;68062;48.726;9.370;2023-09-12T14:20:54;7.77;;;7.30;;
78740;SDS011;68062;48.726;9.370;2023-09-12T14:23:21;7.30;;;6.90;;
78740;SDS011;68062;48.726;9.370;2023-09-12T14:25:47;7.80;;;7.40;;
78740;SDS011;68062;48.726;9.370;2023-09-12T14:28:14;7.80;;;7.33;;
78740;SDS011;68062;48.726;9.370;2023-09-12T14:30:41;7.73;;;7.33;;
78740;SDS011;68062;48.726;9.370;2023-09-12T14:33:11;9.03;;;7.10;;
78740;SDS011;68062;48.726;9.370;2023-09-12T14:35:39;8.20;;;7.60;;
78740;SDS011;68062;48.726;9.370;2023-09-12T14:38:06;7.73;;;6.90;;
78740;SDS011;68062;48.726;9.370;2023-09-12T14:40:33;8.37;;;7.93;;
78740;SDS011;68062;48.726;9.370;2023-09-12T14:43:00;8.80;;;7.80;;